bliper

static html page generation in perl
git clone git://git.2f30.org/bliper.git
Log | Files | Refs | README | LICENSE

DateCommit messageAuthorFiles+-
2015-01-17 11:24Correct footer property in colors.css.cipher1+1-1
2014-12-21 13:24Fix white-space property.cipher1+1-1
2014-12-21 13:16Add missing <p> element.cipher1+1-1
2014-12-11 13:44White-space back again for code segments.cipher1+2-0
2014-12-11 13:24Fix pre/code wrap, remove whitespace wrap.cipher1+2-2
2014-12-11 13:08Add links to titles in article previews in index.html.cipher1+3-1
2014-12-01 09:03Link logo to index.htmlcipher3+3-3
2014-11-28 14:25Missed quote produced sucky outputcipher1+1-1
2014-11-28 14:24Some style changes for more clean resultcipher2+27-19
2014-08-04 13:01Remove style.css.* from deploy script. Files do not exist anymore.cipher1+1-1
2014-08-04 12:54edit changelogcipher1+3-0
2014-08-04 12:42Remove css vars. Oops.cipher1+0-2
2014-08-04 12:39Removed css dialog for style, support for .md files (duh)cipher2+17-44
2014-08-04 12:38Styles removed, all colors live in output/colors.csscipher4+246-390
2014-05-22 07:52The <hr> that got away...cipher1+0-1
2014-05-16 17:17Remove <hr> after fancy updates.cipher2+0-2
2014-05-16 17:13Style changes once more.cipher1+11-3
2014-05-16 17:09Remove hr, getting super-fancy with unicode charscipher1+1-3
2014-05-16 08:27No margin between paragraphs on homepagecipher1+5-0
2014-05-15 21:23Wrong image name on template on previous update.cipher3+3-3
2014-05-15 21:21Better string choice for menu placeholder.cipher1+1-1
2014-05-15 21:13Template changes. Seperation of logo/menu and container.cipher3+17-11
2014-05-15 21:09Minor changes to .css.cipher1+9-3
2014-05-15 20:00Exclude style.css.* files from rsynccipher1+1-1
2014-05-15 13:12Fix utf8. Missing " in headercipher3+3-3
2014-05-11 11:59Remove unused var.cipher1+0-1
2014-05-11 11:55Do not open file everytime in loop.cipher1+1-1
2014-05-11 11:54More clean stylecipher1+17-12
2014-04-25 11:52OCD dictates all comments _must_ begin with a capital letter.cipher1+26-26
2014-04-25 11:49Scan for .css file. If not found, user has to select between dark and…cipher1+36-0
2014-04-25 11:48Remove style.css. In the first run, user will be presented with optio…cipher1+0-184
2014-04-09 22:04Removed sample header for custom imagecipher5+3-3
2014-03-31 13:21Edit TODO filecipher1+0-2
2014-03-27 12:29Updated READMEcipher1+2-1
2014-03-27 12:20Added variable for article previewingcipher1+2-1
2014-03-26 14:01Edit README to reflect recent changescipher2+55-52
2014-03-26 12:21Fix page linkingcipher1+1-1
2014-03-26 11:33Check for articles. If no files exist, do not create blog pagecipher1+16-8
2014-02-19 14:03edit TODOcipher1+2-0
2014-02-19 14:00edit changelogcipher1+2-0
2014-02-19 13:56remove commented linecipher1+0-1
2014-02-19 13:55change blog page generation and post populationcipher3+39-11
2014-02-18 16:37remove useless arraycipher1+7-8
2014-02-18 16:29simpler way for article previewcipher1+7-8
2014-02-09 13:56footer syntax fixcipher3+3-3
2014-02-07 19:16css fixes for article previewcipher3+150-4
2014-02-07 19:14importing primitive article preview for header and first paragraphcipher1+17-2
2014-02-04 13:32add blockquote stylecipher1+6-0
2013-12-25 18:33fixed menu for mobile devicescipher2+38-0
2013-12-22 19:47edit changelogcipher1+2-0
2013-12-22 19:35fix h1 header in demo pagescipher2+4-2
2013-12-22 19:30added class for menu in generate scriptcipher1+1-1
2013-12-22 19:29removed -welcome- message from templatecipher3+0-3
2013-12-22 19:28css changescipher2+49-16
2013-12-16 00:02some style changes; added dark and light css themescipher3+231-11
2013-12-15 20:54added viewport on templatecipher3+6-3
2013-12-03 13:04saner output messages in Makefile and bliper-generate.plcipher2+7-3
2013-12-03 12:54fixed text width @READMEcipher1+3-1
2013-12-03 12:50include Makefile in README and demo articlecipher2+18-5
2013-12-03 12:41added Makefilecipher1+16-0
2013-12-02 23:23removed --delete trigger from deploy script.cipher1+2-1
2013-12-02 20:08edit TODO/changelogcipher2+3-1
2013-12-02 20:00comment fixcipher1+1-1
2013-12-02 17:52updated README and readme demo articlecipher2+10-0
2013-12-02 17:46fix variablecipher1+1-1
2013-12-02 17:43some updated files and demo for pages that do not appear on menucipher3+82-1
2013-12-02 17:36add support for page creation without appearing on menucipher1+19-0
2013-11-30 18:34fixed disquss csscipher1+6-0
2013-11-28 13:52.css clean, add menu class and target li items on .csscipher2+6-7
2013-11-28 12:49updated TODOcipher1+1-0
2013-11-27 13:39append new articles on topcipher1+1-0
2013-11-26 23:59edited READMEcipher1+2-2
2013-11-26 23:58updated README for disquscipher1+4-0
2013-11-26 23:53added disqus support on pagescipher1+15-0
2013-11-26 23:51added disqus supportcipher3+40-4
2013-11-26 23:06added commentscipher1+3-1
2013-11-26 23:00spelling errorcipher1+1-1
2013-11-26 22:55added changelogcipher1+9-0
2013-11-26 22:53update to v0.2cipher16+313-135
2013-11-18 13:01minor alignment output changesHaris1+6-4
2013-11-17 17:24fixed tabs alignmentharis1+12-12
2013-11-17 17:16fixed tabs alignmentharis1+1-1
2013-11-17 17:03fixed tabs alignmentharis1+12-12
2013-11-17 16:56fixed tabs alignmentharis1+1-1
2013-11-17 16:55fixed tabs alignmentharis1+11-11
2013-11-17 16:24added dependencyharis1+2-0
2013-11-17 16:12Initial commitsin13+334-0